Time;durP1;ratioP1;P1;durP2;ratioP2;P2;SDS_P1;SDS_P2;PMS_P1;PMS_P2;Temp;Humidity;BMP_temperature;BMP_pressure;BME280_temperature;BME280_humidity;BME280_pressure;Samples;Min_cycle;Max_cycle;Signal;HPM_P1;HPM_P2
2022/05/19 00:02:16;;;;;;;3.42;1.90;;;;;;;-144.47;100.00;61586.06;5079996;28;20042;-92
2022/05/19 00:04:41;;;;;;;2.72;2.00;;;;;;;-144.47;100.00;61586.06;5099038;28;20036;-93
2022/05/19 00:07:08;;;;;;;3.03;2.15;;;;;;;62.74;100.00;61586.06;5097233;28;20480;-93
2022/05/19 00:09:34;;;;;;;4.47;2.13;;;;;;;62.74;100.00;61586.06;5096564;28;20032;-93
2022/05/19 00:12:03;;;;;;;4.22;1.70;;;;;;;42.00;100.00;61586.06;5096519;28;20484;-93
2022/05/19 00:14:29;;;;;;;5.72;1.85;;;;;;;-144.47;100.00;61586.06;5096740;28;20115;-92
2022/05/19 00:16:56;;;;;;;3.50;2.22;;;;;;;42.00;100.00;61586.06;5079205;28;20064;-93
2022/05/19 00:19:22;;;;;;;2.58;2.03;;;;;;;-144.47;100.00;61586.06;5079118;28;20034;-93
2022/05/19 00:21:48;;;;;;;2.78;2.00;;;;;;;42.00;100.00;61586.06;5078959;28;20028;-93
2022/05/19 00:24:14;;;;;;;3.35;2.33;;;;;;;-144.47;100.00;61586.06;5104465;28;20024;-92
2022/05/19 00:26:41;;;;;;;5.35;2.10;;;;;;;22.40;100.00;61586.06;5100547;28;20028;-93
2022/05/19 00:29:06;;;;;;;4.32;2.60;;;;;;;31.63;100.00;61586.06;5097192;28;20087;-93
2022/05/19 00:31:32;;;;;;;3.08;2.40;;;;;;;31.63;100.00;61586.06;5081220;28;20036;-93
2022/05/19 00:33:59;;;;;;;4.13;2.22;;;;;;;104.25;100.00;61586.06;5098098;28;20031;-93
2022/05/19 00:36:25;;;;;;;5.45;2.22;;;;;;;-144.47;100.00;61586.06;5101019;28;20036;-93
2022/05/19 00:38:51;;;;;;;4.13;2.25;;;;;;;104.25;100.00;61586.06;5116149;28;20031;-92
2022/05/19 00:41:17;;;;;;;6.18;2.15;;;;;;;-144.47;100.00;61586.06;5116706;28;20016;-91
2022/05/19 00:43:58;;;;;;;2.58;1.98;;;;;;;42.00;100.00;61586.06;5115674;28;20023;-93
2022/05/19 00:46:36;;;;;;;7.07;2.47;;;;;;;62.74;100.00;61586.06;5095734;28;20057;-91
2022/05/19 00:49:26;;;;;;;3.92;2.00;;;;;;;62.74;100.00;61586.06;5115333;28;20061;-93
2022/05/19 00:51:52;;;;;;;;;;;;;;;31.63;100.00;61586.06;5115815;28;20072;-93
2022/05/19 00:54:25;;;;;;;2.60;2.10;;;;;;;62.74;100.00;61586.06;5106235;28;19969;-93
2022/05/19 00:57:01;;;;;;;2.97;2.65;;;;;;;62.74;100.00;61586.06;5096424;28;20033;-93
2022/05/19 00:59:43;;;;;;;9.25;2.13;;;;;;;31.63;100.00;61586.06;5097029;28;20369;-93
2022/05/19 01:02:12;;;;;;;5.13;2.30;;;;;;;62.74;100.00;61586.06;5098846;28;20038;-92
2022/05/19 01:04:55;;;;;;;3.22;2.13;;;;;;;-144.47;100.00;61586.06;5097092;28;20028;-92
2022/05/19 01:07:29;;;;;;;3.83;2.47;;;;;;;-144.47;100.00;61586.06;5087608;28;20036;-92
2022/05/19 01:09:56;;;;;;;2.90;2.10;;;;;;;31.63;100.00;61586.06;5096014;28;20032;-92
2022/05/19 01:12:25;;;;;;;2.38;2.17;;;;;;;26.45;100.00;61586.06;5096590;28;20039;-93
2022/05/19 01:14:51;;;;;;;4.50;2.20;;;;;;;104.25;100.00;61586.06;5113950;28;20047;-92
2022/05/19 01:17:16;;;;;;;2.97;2.10;;;;;;;42.00;100.00;61586.06;5112326;28;20036;-92
2022/05/19 01:19:51;;;;;;;3.83;2.00;;;;;;;31.63;100.00;61586.06;5105589;28;20028;-92
2022/05/19 01:22:40;;;;;;;3.13;2.28;;;;;;;-144.47;100.00;61586.06;5096051;28;20074;-92
2022/05/19 01:25:24;;;;;;;5.07;2.40;;;;;;;187.31;100.00;61586.06;5093172;28;20495;-91
2022/05/19 01:27:50;;;;;;;4.78;2.10;;;;;;;-144.47;100.00;61586.06;5086960;28;20032;-91
2022/05/19 01:30:15;;;;;;;4.15;2.38;;;;;;;-144.47;100.00;61586.06;5095136;28;20042;-92
2022/05/19 01:32:41;;;;;;;4.63;2.20;;;;;;;-144.47;100.00;61586.06;5096001;28;20115;-92
2022/05/19 01:35:08;;;;;;;5.28;2.40;;;;;;;-144.47;100.00;61586.06;5095647;28;20032;-93
2022/05/19 01:37:34;;;;;;;5.03;2.17;;;;;;;-144.47;100.00;61586.06;5096727;28;20055;-92
2022/05/19 01:40:38;;;;;;;5.47;2.45;;;;;;;-144.47;100.00;61586.06;5096849;28;20054;-91
2022/05/19 01:43:25;;;;;;;4.57;1.92;;;;;;;-144.47;100.00;61586.06;5111944;28;20054;-92
2022/05/19 01:46:05;;;;;;;4.22;2.33;;;;;;;-144.47;100.00;61586.06;5110313;28;20038;-93
2022/05/19 01:48:38;;;;;;;2.63;2.17;;;;;;;-144.47;100.00;61586.06;5114360;28;20452;-91
2022/05/19 01:51:21;;;;;;;5.78;2.35;;;;;;;-144.47;100.00;61586.06;5109617;28;20036;-93
2022/05/19 01:54:01;;;;;;;4.28;2.33;;;;;;;-144.47;100.00;61586.06;5095966;28;20476;-94
2022/05/19 01:56:39;;;;;;;4.82;2.15;;;;;;;-144.47;100.00;61586.06;5095879;28;20029;-93
2022/05/19 01:59:26;;;;;;;4.97;2.20;;;;;;;-144.47;100.00;61586.06;5096711;28;20032;-93
2022/05/19 02:02:13;;;;;;;5.47;2.38;;;;;;;-144.47;100.00;61586.06;5084622;28;20032;-94
2022/05/19 02:05:23;;;;;;;5.80;2.35;;;;;;;62.74;100.00;61586.06;5096491;28;20032;-93
2022/05/19 02:07:52;;;;;;;5.95;2.03;;;;;;;-144.47;100.00;61586.06;5053216;28;20037;-94
2022/05/19 02:10:26;;;;;;;4.97;2.60;;;;;;;-144.47;100.00;61586.06;5054023;28;20053;-93
2022/05/19 02:12:52;;;;;;;2.95;2.50;;;;;;;-144.47;100.00;61586.06;5059928;28;20078;-93
2022/05/19 02:15:22;;;;;;;5.80;2.55;;;;;;;21.14;100.00;81768.34;5076020;28;20041;-93
2022/05/19 02:17:50;;;;;;;4.10;2.30;;;;;;;-144.47;100.00;61586.06;5074586;28;20085;-93
2022/05/19 02:20:20;;;;;;;4.18;2.05;;;;;;;-144.47;100.00;61586.06;5059192;28;20049;-93
2022/05/19 02:22:45;;;;;;;3.33;2.30;;;;;;;21.22;100.00;61586.06;5065135;28;20071;-93
2022/05/19 02:25:17;;;;;;;3.22;2.20;;;;;;;-144.47;100.00;61586.06;5091240;28;20036;-92
2022/05/19 02:27:50;;;;;;;4.38;1.98;;;;;;;21.26;100.00;61586.06;5087825;28;20096;-92
2022/05/19 02:30:22;;;;;;;4.07;2.20;;;;;;;-144.47;100.00;61586.06;5082976;28;20055;-91
2022/05/19 02:32:48;;;;;;;4.97;2.08;;;;;;;31.63;100.00;61586.06;5075234;28;20037;-92
2022/05/19 02:35:15;;;;;;;2.30;2.03;;;;;;;21.26;100.00;61586.06;5075658;28;20043;-92
2022/05/19 02:37:42;;;;;;;3.70;2.05;;;;;;;-144.47;100.00;61586.06;5062832;28;20505;-93
2022/05/19 02:40:09;;;;;;;6.57;2.10;;;;;;;21.24;100.00;61586.06;5097965;28;20055;-93
2022/05/19 02:42:35;;;;;;;2.28;2.08;;;;;;;21.22;100.00;61586.06;5096690;28;20143;-92
2022/05/19 02:45:00;;;;;;;5.32;2.45;;;;;;;21.20;100.00;61586.06;5092881;28;20484;-92
2022/05/19 02:47:26;;;;;;;3.13;2.30;;;;;;;21.19;100.00;61586.06;5094616;28;20464;-93
2022/05/19 02:49:51;;;;;;;3.97;2.03;;;;;;;21.14;100.00;61586.06;5095677;28;20050;-93
2022/05/19 02:52:17;;;;;;;2.67;2.47;;;;;;;20.93;100.00;61586.06;5099940;28;20028;-92
2022/05/19 02:54:42;;;;;;;3.38;2.00;;;;;;;20.95;100.00;61586.06;5101516;28;20048;-93
2022/05/19 02:57:09;;;;;;;6.63;3.28;;;;;;;-144.47;100.00;61586.06;5094334;28;20472;-94
2022/05/19 02:59:35;;;;;;;4.07;2.50;;;;;;;20.88;100.00;61586.06;5093269;28;20507;-93
2022/05/19 03:02:00;;;;;;;3.47;2.10;;;;;;;-144.47;100.00;61586.06;5093772;28;20040;-91
2022/05/19 03:04:26;;;;;;;6.30;2.50;;;;;;;20.79;100.00;61586.06;5098450;28;20509;-92
2022/05/19 03:06:52;;;;;;;2.70;2.15;;;;;;;-144.47;100.00;61586.06;5098488;28;20059;-91
2022/05/19 03:09:18;;;;;;;3.40;2.30;;;;;;;20.77;100.00;61586.06;5097969;28;20036;-92
2022/05/19 03:11:43;;;;;;;3.53;2.42;;;;;;;-144.47;100.00;61586.06;5097895;28;20039;-92
2022/05/19 03:14:10;;;;;;;3.35;2.40;;;;;;;20.73;100.00;81713.03;5098522;28;20036;-91
2022/05/19 03:16:38;;;;;;;2.65;2.28;;;;;;;-144.47;100.00;61586.06;5097323;28;20422;-92
2022/05/19 03:19:04;;;;;;;4.82;2.72;;;;;;;20.76;100.00;61586.06;5112536;28;20036;-92
2022/05/19 03:21:30;;;;;;;5.25;2.45;;;;;;;20.76;100.00;61586.06;5116373;28;20141;-92
2022/05/19 03:23:55;;;;;;;5.22;2.30;;;;;;;-144.47;100.00;61586.06;5114701;28;20032;-93
2022/05/19 03:26:21;;;;;;;3.90;2.53;;;;;;;-144.47;100.00;61586.06;5118051;28;20036;-92
2022/05/19 03:28:47;;;;;;;7.80;2.83;;;;;;;-144.47;100.00;61586.06;5101023;28;20028;-93
2022/05/19 03:31:12;;;;;;;5.30;2.75;;;;;;;20.74;100.00;61586.06;5118426;28;20020;-92
2022/05/19 03:33:38;;;;;;;6.28;2.50;;;;;;;-144.47;100.00;61586.06;5115822;28;20142;-92
2022/05/19 03:36:04;;;;;;;5.63;2.00;;;;;;;20.69;100.00;61586.06;5103672;28;20123;-91
2022/05/19 03:38:30;;;;;;;3.72;2.08;;;;;;;-144.47;100.00;61586.06;5102591;28;20040;-93
2022/05/19 03:40:55;;;;;;;3.40;2.25;;;;;;;20.61;100.00;61586.06;5113804;28;20032;-93
2022/05/19 03:43:21;;;;;;;6.95;2.47;;;;;;;-144.47;100.00;61586.06;5116472;28;20063;-92
2022/05/19 03:45:47;;;;;;;8.43;2.35;;;;;;;21.26;100.00;61586.06;5108978;28;20043;-92
2022/05/19 03:48:15;;;;;;;4.60;2.42;;;;;;;-144.47;100.00;61586.06;5104802;28;20036;-92
2022/05/19 03:50:48;;;;;;;5.88;2.50;;;;;;;21.26;100.00;61586.06;5098311;28;20084;-90
2022/05/19 03:53:14;;;;;;;2.47;2.22;;;;;;;-144.47;100.00;61586.06;5083834;28;20484;-92
2022/05/19 03:55:39;;;;;;;2.83;2.08;;;;;;;21.26;100.00;61586.06;5095348;28;20059;-92
2022/05/19 03:58:06;;;;;;;4.85;2.78;;;;;;;-144.47;100.00;61586.06;5094528;28;20036;-92
2022/05/19 04:00:33;;;;;;;4.35;2.85;;;;;;;21.26;100.00;61586.06;5095035;28;20047;-92
2022/05/19 04:02:59;;;;;;;5.03;2.13;;;;;;;20.27;100.00;61586.06;5094821;28;20029;-92
2022/05/19 04:05:28;;;;;;;10.35;2.65;;;;;;;20.26;100.00;61586.06;5077438;28;20048;-92
2022/05/19 04:07:54;;;;;;;6.47;2.40;;;;;;;20.19;100.00;61586.06;5076914;28;20053;-92
2022/05/19 04:10:20;;;;;;;2.92;2.38;;;;;;;20.61;100.00;61586.06;5096255;28;20059;-92
2022/05/19 04:12:45;;;;;;;3.65;2.25;;;;;;;187.31;100.00;61586.06;5094261;28;20031;-91
2022/05/19 04:15:12;;;;;;;3.15;2.53;;;;;;;21.26;100.00;61586.06;5097375;28;20097;-92
2022/05/19 04:17:38;;;;;;;3.20;2.30;;;;;;;20.01;100.00;61586.06;5099533;28;20388;-92
2022/05/19 04:20:06;;;;;;;3.90;2.40;;;;;;;187.31;100.00;61586.06;5096184;28;20041;-92
2022/05/19 04:22:32;;;;;;;4.20;2.40;;;;;;;19.93;100.00;61586.06;5096197;28;20032;-92
2022/05/19 04:25:01;;;;;;;3.00;2.72;;;;;;;19.97;100.00;61586.06;5096544;28;20413;-91
2022/05/19 04:27:28;;;;;;;4.68;2.50;;;;;;;-144.47;100.00;61586.06;5095390;28;20028;-93
2022/05/19 04:29:54;;;;;;;5.18;2.65;;;;;;;-144.47;100.00;61586.06;5077195;28;20039;-92
2022/05/19 04:32:20;;;;;;;5.80;2.80;;;;;;;187.31;100.00;61586.06;5095761;28;20107;-92
2022/05/19 04:34:47;;;;;;;3.83;2.22;;;;;;;-144.47;100.00;61586.06;5095156;28;20349;-92
2022/05/19 04:37:13;;;;;;;3.63;3.20;;;;;;;-144.47;100.00;61586.06;5095538;28;20039;-93
2022/05/19 04:39:39;;;;;;;5.43;3.13;;;;;;;-144.47;100.00;61586.06;5095555;28;20407;-94
2022/05/19 04:42:06;;;;;;;6.38;2.65;;;;;;;-144.47;100.00;61586.06;5097220;28;20844;-92
2022/05/19 04:44:32;;;;;;;7.00;2.30;;;;;;;-144.47;100.00;61586.06;5098056;28;20471;-92
2022/05/19 04:46:57;;;;;;;2.50;2.33;;;;;;;-144.47;100.00;61586.06;5096731;28;20058;-92
2022/05/19 04:49:23;;;;;;;2.47;2.20;;;;;;;-144.47;100.00;61586.06;5094886;28;20051;-92
2022/05/19 04:51:48;;;;;;;3.08;1.98;;;;;;;-144.47;100.00;61586.06;5096089;28;20090;-91
2022/05/19 04:54:14;;;;;;;4.28;2.80;;;;;;;-144.47;100.00;61586.06;5078618;28;20086;-91
2022/05/19 04:56:41;;;;;;;4.13;2.20;;;;;;;-144.47;100.00;61586.06;5122239;27;20077;-92
2022/05/19 04:59:13;;;;;;;3.30;2.40;;;;;;;-144.47;100.00;61586.06;5089115;28;20475;-92
2022/05/19 05:01:43;;;;;;;5.45;2.20;;;;;;;-144.47;100.00;61586.06;5097485;28;20043;-92
2022/05/19 05:04:09;;;;;;;4.00;2.88;;;;;;;-144.47;100.00;61586.06;5094839;28;20024;-89
2022/05/19 05:06:35;;;;;;;7.60;2.95;;;;;;;187.31;100.00;61586.06;5093158;28;20061;-88
2022/05/19 05:09:01;;;;;;;6.32;2.83;;;;;;;20.83;100.00;61586.06;5091572;28;20069;-89
2022/05/19 05:11:26;;;;;;;3.22;2.50;;;;;;;-144.47;100.00;61586.06;5092296;28;20031;-89
2022/05/19 05:13:52;;;;;;;5.13;2.47;;;;;;;-144.47;100.00;61586.06;5092754;28;20032;-89
2022/05/19 05:16:17;;;;;;;3.33;2.20;;;;;;;-144.47;100.00;61586.06;5096305;28;20032;-89
2022/05/19 05:18:43;;;;;;;4.95;2.50;;;;;;;-144.47;100.00;61586.06;5098235;28;20113;-89
2022/05/19 05:21:11;;;;;;;4.95;2.50;;;;;;;-144.47;100.00;61586.06;5095063;28;20794;-90
2022/05/19 05:23:37;;;;;;;3.50;2.65;;;;;;;-144.47;100.00;61586.06;5101045;28;20027;-90
2022/05/19 05:26:03;;;;;;;5.53;2.58;;;;;;;-144.47;100.00;61586.06;5081637;28;20085;-83
2022/05/19 05:28:30;;;;;;;5.53;2.80;;;;;;;-144.47;100.00;61586.06;5094636;28;20067;-86
2022/05/19 05:30:55;;;;;;;5.78;2.22;;;;;;;-144.47;100.00;61586.06;5090780;28;20040;-74
2022/05/19 05:33:21;;;;;;;3.83;2.50;;;;;;;-144.47;100.00;61586.06;5091526;28;20032;-75
2022/05/19 05:35:46;;;;;;;4.78;2.95;;;;;;;-144.47;100.00;61586.06;5090886;28;20184;-72
2022/05/19 05:38:11;;;;;;;4.60;2.47;;;;;;;-144.47;100.00;61586.06;5090063;28;20028;-73
2022/05/19 05:40:37;;;;;;;5.28;3.28;;;;;;;-144.47;100.00;61586.06;5090623;28;20032;-73
2022/05/19 05:43:08;;;;;;;4.55;2.22;;;;;;;-144.47;100.00;61586.06;5090462;28;20043;-73
2022/05/19 05:45:33;;;;;;;7.45;2.80;;;;;;;-144.47;100.00;61586.06;5090371;28;20036;-73
2022/05/19 05:47:59;;;;;;;3.75;2.20;;;;;;;-144.47;100.00;61586.06;5087815;28;20046;-72
2022/05/19 05:50:24;;;;;;;4.18;2.42;;;;;;;-144.47;100.00;61586.06;5088506;28;20077;-72
2022/05/19 05:52:50;;;;;;;6.38;2.58;;;;;;;-144.47;100.00;61586.06;5085937;28;20127;-73
2022/05/19 05:55:15;;;;;;;5.05;2.30;;;;;;;-144.47;100.00;61586.06;5091914;28;20381;-73
2022/05/19 05:57:41;;;;;;;2.92;2.20;;;;;;;-144.47;100.00;61586.06;5097012;28;20049;-74
2022/05/19 06:00:11;;;;;;;4.82;2.63;;;;;;;-144.47;100.00;61586.06;5097350;28;20507;-72
2022/05/19 06:02:40;;;;;;;3.17;2.15;;;;;;;-144.47;100.00;61586.06;5094732;28;20129;-72
2022/05/19 06:05:05;;;;;;;4.18;2.45;;;;;;;-144.47;100.00;61586.06;5090885;28;20036;-76
2022/05/19 06:07:31;;;;;;;5.75;2.47;;;;;;;-144.47;100.00;61586.06;5093014;28;20039;-75
2022/05/19 06:09:57;;;;;;;5.25;3.13;;;;;;;-144.47;100.00;61586.06;5087589;28;20047;-75
2022/05/19 06:12:23;;;;;;;3.47;2.78;;;;;;;-144.47;100.00;61586.06;5086367;28;20020;-74
2022/05/19 06:14:53;;;;;;;4.97;2.72;;;;;;;-144.47;100.00;61586.06;5090260;28;20036;-75
2022/05/19 06:17:19;;;;;;;6.60;2.58;;;;;;;-144.47;100.00;61586.06;5087877;28;20039;-75
2022/05/19 06:19:45;;;;;;;7.80;2.00;;;;;;;-144.47;100.00;61586.06;5086353;28;20028;-74
2022/05/19 06:22:11;;;;;;;3.28;2.20;;;;;;;-144.47;100.00;61586.06;5089009;28;20472;-74
2022/05/19 06:24:37;;;;;;;6.55;3.08;;;;;;;-144.47;100.00;61586.06;5090527;28;20032;-75
2022/05/19 06:27:03;;;;;;;3.78;2.53;;;;;;;-144.47;100.00;61586.06;5089988;28;20548;-75
2022/05/19 06:29:29;;;;;;;4.15;2.15;;;;;;;-144.47;100.00;61586.06;5088898;28;20032;-74
2022/05/19 06:31:55;;;;;;;3.72;2.22;;;;;;;-144.47;100.00;61586.06;5090166;28;20036;-75
2022/05/19 06:34:20;;;;;;;5.75;2.70;;;;;;;-144.47;100.00;61586.06;5089273;28;20346;-74
2022/05/19 06:36:47;;;;;;;3.75;2.83;;;;;;;-144.47;100.00;61586.06;5091460;28;20016;-74
2022/05/19 06:39:14;;;;;;;3.55;2.88;;;;;;;-144.47;100.00;61586.06;5093486;28;20043;-74
2022/05/19 06:44:24;;;;;;;7.13;2.72;;;;;;;-144.47;100.00;61586.06;5091183;28;20032;-73
2022/05/19 06:46:49;;;;;;;3.30;2.45;;;;;;;-144.47;100.00;61586.06;5092283;28;20028;-74
2022/05/19 06:49:17;;;;;;;4.95;2.55;;;;;;;-144.47;100.00;61586.06;5094184;28;20471;-74
2022/05/19 06:51:42;;;;;;;3.28;2.40;;;;;;;-144.47;100.00;61586.06;5092973;28;20449;-74
2022/05/19 06:54:08;;;;;;;2.83;2.38;;;;;;;-144.47;100.00;61586.06;5093936;28;20058;-75
2022/05/19 06:56:36;;;;;;;3.78;2.88;;;;;;;-144.47;100.00;61586.06;5093070;28;20028;-76
2022/05/19 06:59:03;;;;;;;3.97;2.33;;;;;;;-144.47;100.00;61586.06;5093569;28;20474;-75
2022/05/19 07:01:29;;;;;;;4.95;2.35;;;;;;;-144.47;100.00;61586.06;5092485;28;20043;-73
2022/05/19 07:03:55;;;;;;;5.53;2.65;;;;;;;-144.47;100.00;61586.06;5093287;28;20035;-74
2022/05/19 07:06:21;;;;;;;3.47;2.90;;;;;;;-144.47;100.00;61586.06;5092434;28;20020;-76
2022/05/19 07:08:47;;;;;;;3.78;2.55;;;;;;;-144.47;100.00;61586.06;5092749;28;20040;-75
2022/05/19 07:11:24;;;;;;;4.35;2.35;;;;;;;-144.47;100.00;61586.06;5091114;28;20088;-76
2022/05/19 07:13:54;;;;;;;6.67;2.97;;;;;;;-144.47;100.00;61586.06;5089898;28;20045;-74
2022/05/19 07:16:20;;;;;;;3.50;2.60;;;;;;;-144.47;100.00;61586.06;5091904;28;20554;-75
2022/05/19 07:18:45;;;;;;;5.00;2.85;;;;;;;-144.47;100.00;61586.06;5093219;28;20036;-75
2022/05/19 07:21:12;;;;;;;6.03;2.75;;;;;;;-144.47;100.00;61586.06;5092247;28;20440;-73
2022/05/19 07:23:39;;;;;;;2.78;2.50;;;;;;;-144.47;100.00;61586.06;5091726;28;20148;-73
2022/05/19 07:26:06;;;;;;;6.07;2.72;;;;;;;-144.47;100.00;61586.06;5092004;28;20020;-74
2022/05/19 07:28:31;;;;;;;4.45;2.65;;;;;;;-144.47;100.00;61586.06;5092941;28;20480;-75
2022/05/19 07:30:57;;;;;;;5.20;2.80;;;;;;;-144.47;100.00;61586.06;5091603;28;20020;-74
2022/05/19 07:33:23;;;;;;;5.57;2.85;;;;;;;-144.47;100.00;61586.06;5092731;28;20032;-73
2022/05/19 07:35:51;;;;;;;3.10;2.80;;;;;;;-144.47;100.00;61586.06;5091820;28;20035;-74
2022/05/19 07:38:16;;;;;;;4.15;2.75;;;;;;;-144.47;100.00;61586.06;5092860;28;20028;-73
2022/05/19 07:40:43;;;;;;;8.60;2.30;;;;;;;-144.47;100.00;61586.06;5073631;28;20113;-76
2022/05/19 07:45:54;;;;;;;4.10;2.50;;;;;;;-144.47;100.00;61586.06;5088393;28;20036;-74
2022/05/19 07:48:20;;;;;;;4.32;2.22;;;;;;;-144.47;100.00;61586.06;5091819;28;20472;-74
2022/05/19 07:50:45;;;;;;;7.07;2.60;;;;;;;-144.47;100.00;61586.06;5091669;28;20377;-73
2022/05/19 07:53:11;;;;;;;5.93;3.05;;;;;;;-144.47;100.00;61586.06;5092530;28;20035;-74
2022/05/19 07:55:36;;;;;;;8.80;2.58;;;;;;;-144.47;100.00;61586.06;5093411;28;20529;-74
2022/05/19 07:58:03;;;;;;;6.10;2.70;;;;;;;-144.47;100.00;61586.06;5091782;28;20028;-75
2022/05/19 08:00:29;;;;;;;6.88;2.65;;;;;;;-144.47;100.00;61586.06;5092932;28;20028;-73
2022/05/19 08:02:55;;;;;;;6.60;3.50;;;;;;;-144.47;100.00;61586.06;5091655;28;20035;-75
2022/05/19 08:05:21;;;;;;;4.25;3.03;;;;;;;-144.47;100.00;61586.06;5092735;28;20511;-73
2022/05/19 08:07:47;;;;;;;5.53;2.90;;;;;;;-144.47;100.00;61586.06;5091656;28;20097;-70
2022/05/19 08:10:25;;;;;;;3.72;2.83;;;;;;;-144.47;100.00;61586.06;5097793;28;20032;-76
2022/05/19 08:15:39;;;;;;;6.68;2.90;;;;;;;-144.47;100.00;61586.06;5101637;28;20032;-75
2022/05/19 08:18:08;;;;;;;2.83;2.63;;;;;;;-144.47;100.00;61586.06;5101400;28;20188;-74
2022/05/19 08:20:36;;;;;;;3.83;3.17;;;;;;;-144.47;100.00;61586.06;5096430;28;20039;-74
2022/05/19 08:23:03;;;;;;;3.85;2.95;;;;;;;-144.47;100.00;61586.06;5093359;28;20491;-78
2022/05/19 08:25:29;;;;;;;6.40;2.88;;;;;;;-144.47;100.00;61586.06;5095968;28;20085;-74
2022/05/19 08:27:56;;;;;;;4.53;2.90;;;;;;;-144.47;100.00;61586.06;5092511;28;20077;-74
2022/05/19 08:30:22;;;;;;;7.68;3.35;;;;;;;-144.47;100.00;61586.06;5091772;28;20036;-73
2022/05/19 08:32:50;;;;;;;7.55;3.03;;;;;;;-144.47;100.00;61586.06;5094233;28;20024;-76
2022/05/19 08:35:16;;;;;;;5.25;2.90;;;;;;;-144.47;100.00;61586.06;5095307;28;20032;-74
2022/05/19 08:37:41;;;;;;;7.15;4.25;;;;;;;-144.47;100.00;61586.06;5096799;28;20040;-74
2022/05/19 08:40:08;;;;;;;4.47;3.00;;;;;;;-144.47;100.00;61586.06;5098240;28;20034;-71
2022/05/19 08:42:41;;;;;;;6.93;3.25;;;;;;;-144.47;100.00;61586.06;5098538;28;20037;-72
2022/05/19 08:45:19;;;;;;;7.55;3.40;;;;;;;-144.47;100.00;61586.06;5097038;28;20376;-72
2022/05/19 08:47:48;;;;;;;6.28;3.42;;;;;;;-144.47;100.00;61586.06;5098489;28;20031;-71
2022/05/19 08:50:27;;;;;;;6.07;2.78;;;;;;;-144.47;100.00;61586.06;5097013;28;20357;-72
2022/05/19 08:52:54;;;;;;;6.90;3.55;;;;;;;-144.47;100.00;61586.06;5097007;28;20036;-71
2022/05/19 08:55:19;;;;;;;3.75;2.38;;;;;;;-144.47;100.00;61586.06;5099000;28;20028;-72
2022/05/19 08:58:13;;;;;;;5.00;2.70;;;;;;;-144.47;100.00;61586.06;5097377;28;20031;-72
2022/05/19 09:00:46;;;;;;;4.55;2.55;;;;;;;-144.47;100.00;61586.06;5095623;28;20035;-72
2022/05/19 09:03:19;;;;;;;5.97;3.13;;;;;;;21.06;100.00;61586.06;5095468;28;20111;-72
2022/05/19 09:05:59;;;;;;;14.05;4.22;;;;;;;25.15;100.00;61586.06;5098700;28;20067;-73
2022/05/19 09:08:34;;;;;;;;;;;;;;;25.15;100.00;61586.06;5113082;27;20056;-72
2022/05/19 09:11:15;;;;;;;5.15;3.08;;;;;;;104.25;100.00;61586.06;5093112;28;20391;-72
2022/05/19 09:14:06;;;;;;;5.88;2.85;;;;;;;42.00;100.00;61586.06;5095447;28;20039;-73
2022/05/19 09:16:38;;;;;;;4.40;2.80;;;;;;;62.74;100.00;61586.06;5094964;28;20038;-71
2022/05/19 09:19:27;;;;;;;3.50;3.20;;;;;;;104.25;100.00;61586.06;5096808;28;20139;-71
2022/05/19 09:22:15;;;;;;;5.03;3.10;;;;;;;25.15;100.00;61586.06;5086035;28;20084;-71
2022/05/19 09:24:43;;;;;;;5.43;3.10;;;;;;;25.15;100.00;61586.06;5094300;28;20055;-71
2022/05/19 09:27:09;;;;;;;5.93;3.13;;;;;;;-144.47;100.00;61586.06;5095389;28;20032;-71
2022/05/19 09:29:41;;;;;;;3.83;3.00;;;;;;;-144.47;100.00;61586.06;5097802;28;20039;-71
2022/05/19 09:32:14;;;;;;;6.05;2.92;;;;;;;-144.47;100.00;61586.06;5094964;28;20051;-72
2022/05/19 09:34:51;;;;;;;6.25;2.72;;;;;;;-144.47;100.00;61586.06;4735233;28;9999694;-72
2022/05/19 09:37:43;;;;;;;3.78;2.47;;;;;;;-144.47;100.00;61586.06;4741402;28;9999815;-72
2022/05/19 09:40:11;;;;;;;4.80;2.50;;;;;;;104.25;100.00;61586.06;5091271;28;20052;-72
2022/05/19 09:42:54;;;;;;;6.55;2.92;;;;;;;62.74;100.00;61586.06;5090384;28;20027;-71
2022/05/19 09:45:22;;;;;;;4.45;3.10;;;;;;;62.74;100.00;61586.06;5085464;28;20119;-71
2022/05/19 09:47:51;;;;;;;3.28;2.97;;;;;;;62.74;100.00;61586.06;5088893;28;20032;-71
2022/05/19 09:50:29;;;;;;;3.80;2.72;;;;;;;-144.47;100.00;61586.06;5086653;28;20140;-71
2022/05/19 09:53:04;;;;;;;5.18;2.33;;;;;;;62.74;100.00;61586.06;5087836;28;20476;-72
2022/05/19 09:55:30;;;;;;;3.28;2.30;;;;;;;104.25;100.00;61586.06;5090170;28;20036;-71
2022/05/19 09:57:59;;;;;;;5.15;2.90;;;;;;;104.25;100.00;61586.06;5090594;28;20028;-71
2022/05/19 10:00:32;;;;;;;5.25;3.30;;;;;;;25.15;100.00;61586.06;5094705;28;20470;-71
2022/05/19 10:03:00;;;;;;;3.33;3.03;;;;;;;62.74;100.00;61586.06;5090609;28;20107;-72
2022/05/19 10:05:46;;;;;;;4.25;2.50;;;;;;;104.25;100.00;61586.06;5090943;28;20421;-71
2022/05/19 10:08:16;;;;;;;2.58;2.38;;;;;;;42.00;100.00;61586.06;5088168;28;20032;-71
2022/05/19 10:10:48;;;;;;;4.75;3.13;;;;;;;25.15;100.00;61586.06;5089825;28;20032;-70
2022/05/19 10:13:16;;;;;;;4.63;3.03;;;;;;;187.31;100.00;61586.06;5088649;28;20039;-73
2022/05/19 10:16:07;;;;;;;8.00;2.60;;;;;;;62.74;100.00;61586.06;5095668;28;20062;-71
2022/05/19 10:18:32;;;;;;;;;;;;;;;31.63;100.00;61586.06;5092537;28;20106;-70
2022/05/19 10:21:06;;;;;;;5.25;3.08;;;;;;;42.00;100.00;61586.06;5094260;28;20003;-70
2022/05/19 10:23:48;;;;;;;9.48;3.17;;;;;;;42.00;100.00;61586.06;5086823;28;20040;-71
2022/05/19 10:26:39;;;;;;;4.45;3.10;;;;;;;-144.47;100.00;61586.06;5091990;28;20553;-71
2022/05/19 10:32:23;;;;;;;4.20;2.83;;;;;;;30.34;100.00;61586.06;5096227;28;20028;-72
2022/05/19 10:35:04;;;;;;;5.20;3.03;;;;;;;30.34;100.00;61586.06;5093877;28;20090;-74
2022/05/19 10:38:06;;;;;;;3.35;2.92;;;;;;;-144.47;100.00;61586.06;5093970;28;20497;-73
2022/05/19 10:40:32;;;;;;;7.32;2.88;;;;;;;-144.47;100.00;61586.06;5087878;28;20035;-75
2022/05/19 10:43:25;;;;;;;3.63;2.78;;;;;;;-144.47;100.00;61586.06;5087161;28;20028;-76
2022/05/19 10:45:56;;;;;;;5.85;3.35;;;;;;;-144.47;100.00;61586.06;5085833;28;20118;-75
2022/05/19 10:48:45;;;;;;;6.90;3.40;;;;;;;-144.47;100.00;61586.06;5089543;28;20038;-75
2022/05/19 10:51:24;;;;;;;8.75;3.83;;;;;;;-144.47;100.00;61586.06;5088285;28;20059;-74
2022/05/19 10:53:50;;;;;;;4.87;2.97;;;;;;;-144.47;100.00;61586.06;5085864;28;20047;-77
2022/05/19 10:56:47;;;;;;;4.07;3.63;;;;;;;-144.47;100.00;61586.06;5089918;28;20028;-77
2022/05/19 10:59:31;;;;;;;5.75;4.03;;;;;;;-144.47;100.00;61586.06;5089304;28;20071;-77
2022/05/19 11:02:21;;;;;;;4.90;4.50;;;;;;;-144.47;100.00;61586.06;5086540;28;20444;-77
2022/05/19 11:05:02;;;;;;;6.70;4.82;;;;;;;-144.47;100.00;61586.06;5086172;28;20032;-74
2022/05/19 11:07:45;;;;;;;6.65;5.20;;;;;;;25.23;100.00;61586.06;5087525;28;20040;-74
2022/05/19 11:10:24;;;;;;;7.80;4.70;;;;;;;-144.47;100.00;61586.06;5089158;28;20123;-74
2022/05/19 11:13:01;;;;;;;9.32;6.28;;;;;;;-144.47;100.00;61586.06;5085366;28;20032;-74
2022/05/19 11:15:43;;;;;;;7.00;5.20;;;;;;;-144.47;100.00;61586.06;5087991;28;20421;-76
2022/05/19 11:19:02;;;;;;;8.13;5.65;;;;;;;-144.47;100.00;61586.06;5090131;28;20036;-74
2022/05/19 11:21:35;;;;;;;8.18;4.60;;;;;;;-144.47;100.00;61586.06;5092568;28;20130;-76
2022/05/19 11:24:21;;;;;;;6.70;5.57;;;;;;;-144.47;100.00;61586.06;5095679;28;20100;-75
2022/05/19 11:27:10;;;;;;;10.43;5.28;;;;;;;-144.47;100.00;61586.06;5093066;28;20119;-76
2022/05/19 11:29:39;;;;;;;6.70;4.97;;;;;;;-144.47;100.00;61586.06;5096639;28;20040;-76
2022/05/19 11:32:19;;;;;;;7.78;5.13;;;;;;;-144.47;100.00;61586.06;5097933;28;20031;-75
2022/05/19 11:35:04;;;;;;;10.98;5.28;;;;;;;-144.47;100.00;61586.06;5096127;28;20036;-75
2022/05/19 11:37:38;;;;;;;8.88;5.18;;;;;;;-144.47;100.00;61586.06;5098461;28;20102;-75
2022/05/19 11:40:26;;;;;;;7.70;5.00;;;;;;;-144.47;100.00;61586.06;5101064;28;20094;-74
2022/05/19 11:42:51;;;;;;;8.68;5.10;;;;;;;-144.47;100.00;61586.06;5100475;28;20023;-75